GIA342 WARR-WADD
Flight info
| Callsign | GIA342 |
|---|---|
| Flight time | 0h 40m |
| Altitude | 23000 |
| Route | MOVMO |
| Aircraft | B738/M-SDE2E3FGHIRWXY/LB1 |
Departure
| Time | 2026-05-09 00:52 |
|---|---|
| Airport | Juanda International Airport (WARR) |
Arrival
| Time | 2026-05-09 01:33 |
|---|---|
| Airport | Denpasar I Gusti Ngurah Rai International Airport (WADD) |
| Time | Latitude | Longitude | Altitude | Speed | Heading |
|---|---|---|---|---|---|
| 2026-05-09 00:32 | -7.37571 | 112.79347 | 10 ft | 0 kts | 9° |
| 2026-05-09 00:43 | -7.37571 | 112.79346 | 8 ft | 1 kts | 9° |
| 2026-05-09 00:43 | -7.37584 | 112.79344 | 9 ft | 3 kts | 9° |
| 2026-05-09 00:44 | -7.37604 | 112.79341 | 9 ft | 3 kts | 9° |
| 2026-05-09 00:44 | -7.37623 | 112.79338 | 8 ft | 2 kts | 9° |
| 2026-05-09 00:44 | -7.37640 | 112.79334 | 9 ft | 3 kts | 31° |
| 2026-05-09 00:44 | -7.37651 | 112.79323 | 8 ft | 3 kts | 80° |
| 2026-05-09 00:45 | -7.37652 | 112.79304 | 8 ft | 2 kts | 99° |
| 2026-05-09 00:45 | -7.37650 | 112.79296 | 8 ft | 1 kts | 99° |
| 2026-05-09 00:46 | -7.37651 | 112.79297 | 8 ft | 0 kts | 99° |
| 2026-05-09 00:47 | -7.37651 | 112.79298 | 8 ft | 0 kts | 99° |
| 2026-05-09 00:47 | -7.37652 | 112.79307 | 8 ft | 3 kts | 99° |
| 2026-05-09 00:47 | -7.37658 | 112.79346 | 8 ft | 7 kts | 99° |
| 2026-05-09 00:47 | -7.37667 | 112.79402 | 8 ft | 9 kts | 99° |
| 2026-05-09 00:48 | -7.37699 | 112.79448 | 8 ft | 8 kts | 166° |
| 2026-05-09 00:48 | -7.37757 | 112.79441 | 8 ft | 8 kts | 188° |
| 2026-05-09 00:48 | -7.37813 | 112.79433 | 8 ft | 8 kts | 188° |
| 2026-05-09 00:48 | -7.37868 | 112.79423 | 10 ft | 8 kts | 192° |
| 2026-05-09 00:49 | -7.37917 | 112.79436 | 8 ft | 8 kts | 137° |
| 2026-05-09 00:49 | -7.37937 | 112.79491 | 8 ft | 11 kts | 100° |
| 2026-05-09 00:49 | -7.37954 | 112.79585 | 9 ft | 17 kts | 100° |
| 2026-05-09 00:49 | -7.37974 | 112.79712 | 8 ft | 19 kts | 97° |
| 2026-05-09 00:50 | -7.37993 | 112.79845 | 9 ft | 19 kts | 99° |
| 2026-05-09 00:50 | -7.38011 | 112.79954 | 8 ft | 14 kts | 99° |
| 2026-05-09 00:50 | -7.38055 | 112.80034 | 7 ft | 13 kts | 149° |
| 2026-05-09 00:50 | -7.38145 | 112.80033 | 6 ft | 14 kts | 192° |
| 2026-05-09 00:51 | -7.38190 | 112.79997 | 6 ft | 8 kts | 264° |
| 2026-05-09 00:51 | -7.38179 | 112.79904 | 6 ft | 32 kts | 279° |
| 2026-05-09 00:51 | -7.38103 | 112.79435 | 8 ft | 102 kts | 279° |
| 2026-05-09 00:51 | -7.37960 | 112.78547 | 16 ft | 155 kts | 279° |
| 2026-05-09 00:52 | -7.37776 | 112.77402 | 450 ft | 166 kts | 279° |
| 2026-05-09 00:52 | -7.37561 | 112.76269 | 1079 ft | 169 kts | 281° |
| 2026-05-09 00:52 | -7.37343 | 112.75008 | 1342 ft | 197 kts | 279° |
| 2026-05-09 00:52 | -7.37111 | 112.73574 | 1626 ft | 219 kts | 279° |
| 2026-05-09 00:53 | -7.36942 | 112.72534 | 1759 ft | 234 kts | 279° |
| 2026-05-09 00:53 | -7.36568 | 112.70286 | 2169 ft | 255 kts | 280° |
| 2026-05-09 00:53 | -7.36367 | 112.69093 | 2392 ft | 264 kts | 280° |
| 2026-05-09 00:53 | -7.36049 | 112.67224 | 2928 ft | 274 kts | 280° |
| 2026-05-09 00:54 | -7.35725 | 112.65317 | 3720 ft | 276 kts | 280° |
| 2026-05-09 00:54 | -7.35037 | 112.63529 | 4557 ft | 276 kts | 309° |
| 2026-05-09 00:54 | -7.33520 | 112.62425 | 5355 ft | 276 kts | 342° |
| 2026-05-09 00:54 | -7.31602 | 112.62229 | 6157 ft | 276 kts | 9° |
| 2026-05-09 00:55 | -7.29814 | 112.62828 | 6897 ft | 277 kts | 32° |
| 2026-05-09 00:55 | -7.28384 | 112.64120 | 7644 ft | 279 kts | 55° |
| 2026-05-09 00:55 | -7.27515 | 112.65875 | 8414 ft | 282 kts | 69° |
| 2026-05-09 00:55 | -7.26824 | 112.67743 | 9203 ft | 287 kts | 70° |
| 2026-05-09 00:56 | -7.26140 | 112.69655 | 9989 ft | 292 kts | 70° |
| 2026-05-09 00:56 | -7.25442 | 112.71595 | 10765 ft | 295 kts | 70° |
| 2026-05-09 00:56 | -7.24725 | 112.73566 | 11379 ft | 308 kts | 70° |
| 2026-05-09 00:56 | -7.23958 | 112.75650 | 11575 ft | 332 kts | 70° |
| 2026-05-09 00:57 | -7.23135 | 112.77870 | 12108 ft | 343 kts | 70° |
| 2026-05-09 00:57 | -7.22290 | 112.80136 | 12855 ft | 346 kts | 70° |
| 2026-05-09 00:57 | -7.21440 | 112.82414 | 13692 ft | 348 kts | 71° |
| 2026-05-09 00:57 | -7.20956 | 112.84810 | 14307 ft | 353 kts | 91° |
| 2026-05-09 00:58 | -7.21421 | 112.87217 | 14957 ft | 356 kts | 112° |
| 2026-05-09 00:58 | -7.22679 | 112.89367 | 15663 ft | 358 kts | 128° |
| 2026-05-09 00:58 | -7.24230 | 112.91349 | 16357 ft | 362 kts | 130° |
| 2026-05-09 00:58 | -7.25837 | 112.93338 | 16983 ft | 367 kts | 130° |
| 2026-05-09 00:59 | -7.27474 | 112.95350 | 17607 ft | 373 kts | 130° |
| 2026-05-09 00:59 | -7.29104 | 112.97363 | 18240 ft | 376 kts | 130° |
| 2026-05-09 00:59 | -7.30760 | 112.99420 | 18817 ft | 379 kts | 130° |
| 2026-05-09 00:59 | -7.32426 | 113.01503 | 19395 ft | 382 kts | 130° |
| 2026-05-09 01:00 | -7.34085 | 113.03584 | 19957 ft | 385 kts | 130° |
| 2026-05-09 01:00 | -7.35771 | 113.05705 | 20526 ft | 388 kts | 130° |
| 2026-05-09 01:00 | -7.37467 | 113.07841 | 21098 ft | 391 kts | 130° |
| 2026-05-09 01:00 | -7.39175 | 113.09994 | 21652 ft | 394 kts | 130° |
| 2026-05-09 01:01 | -7.40894 | 113.12163 | 22204 ft | 397 kts | 130° |
| 2026-05-09 01:01 | -7.42617 | 113.14338 | 22827 ft | 397 kts | 130° |
| 2026-05-09 01:01 | -7.44351 | 113.16526 | 22989 ft | 401 kts | 130° |
| 2026-05-09 01:01 | -7.46077 | 113.18704 | 23003 ft | 405 kts | 130° |
| 2026-05-09 01:02 | -7.47835 | 113.20923 | 23008 ft | 405 kts | 130° |
| 2026-05-09 01:02 | -7.49592 | 113.23143 | 23003 ft | 404 kts | 130° |
| 2026-05-09 01:02 | -7.51344 | 113.25356 | 23013 ft | 403 kts | 130° |
| 2026-05-09 01:02 | -7.53095 | 113.27569 | 23015 ft | 403 kts | 130° |
| 2026-05-09 01:03 | -7.54840 | 113.29774 | 23013 ft | 403 kts | 130° |
| 2026-05-09 01:03 | -7.56586 | 113.31979 | 23020 ft | 403 kts | 130° |
| 2026-05-09 01:03 | -7.58339 | 113.34194 | 23013 ft | 403 kts | 130° |
| 2026-05-09 01:03 | -7.60089 | 113.36405 | 23026 ft | 403 kts | 130° |
| 2026-05-09 01:04 | -7.61840 | 113.38619 | 23011 ft | 404 kts | 130° |
| 2026-05-09 01:04 | -7.63595 | 113.40837 | 23009 ft | 404 kts | 130° |
| 2026-05-09 01:04 | -7.65323 | 113.43022 | 23009 ft | 404 kts | 130° |
| 2026-05-09 01:04 | -7.67081 | 113.45244 | 23034 ft | 404 kts | 131° |
| 2026-05-09 01:05 | -7.68837 | 113.47464 | 23031 ft | 404 kts | 131° |
| 2026-05-09 01:05 | -7.70596 | 113.49690 | 23031 ft | 404 kts | 131° |
| 2026-05-09 01:05 | -7.74102 | 113.54125 | 23030 ft | 404 kts | 131° |
| 2026-05-09 01:06 | -7.75855 | 113.56343 | 23038 ft | 404 kts | 131° |
| 2026-05-09 01:06 | -7.77612 | 113.58567 | 23032 ft | 404 kts | 131° |
| 2026-05-09 01:06 | -7.79347 | 113.60764 | 23047 ft | 404 kts | 131° |
| 2026-05-09 01:06 | -7.81100 | 113.62983 | 23048 ft | 404 kts | 131° |
| 2026-05-09 01:07 | -7.82850 | 113.65199 | 23055 ft | 404 kts | 131° |
| 2026-05-09 01:07 | -7.84602 | 113.67417 | 23047 ft | 404 kts | 131° |
| 2026-05-09 01:07 | -7.86353 | 113.69636 | 23046 ft | 403 kts | 131° |
| 2026-05-09 01:07 | -7.88102 | 113.71852 | 23051 ft | 403 kts | 131° |
| 2026-05-09 01:08 | -7.89848 | 113.74064 | 23053 ft | 403 kts | 131° |
| 2026-05-09 01:08 | -7.91574 | 113.76251 | 23046 ft | 403 kts | 131° |
| 2026-05-09 01:08 | -7.93322 | 113.78467 | 23066 ft | 402 kts | 131° |
| 2026-05-09 01:08 | -7.95067 | 113.80679 | 23069 ft | 403 kts | 131° |
| 2026-05-09 01:09 | -7.96812 | 113.82892 | 23059 ft | 403 kts | 131° |
| 2026-05-09 01:09 | -7.98558 | 113.85105 | 23069 ft | 403 kts | 131° |
| 2026-05-09 01:09 | -8.00300 | 113.87285 | 23065 ft | 402 kts | 134° |
| 2026-05-09 01:09 | -8.02458 | 113.89032 | 23080 ft | 396 kts | 153° |
| 2026-05-09 01:10 | -8.05010 | 113.90019 | 23070 ft | 393 kts | 170° |
| 2026-05-09 01:10 | -8.07709 | 113.90416 | 23081 ft | 392 kts | 174° |
| 2026-05-09 01:10 | -8.10420 | 113.90730 | 23093 ft | 392 kts | 175° |
| 2026-05-09 01:10 | -8.13143 | 113.91030 | 23086 ft | 393 kts | 175° |
| 2026-05-09 01:11 | -8.15881 | 113.91337 | 23075 ft | 394 kts | 175° |
| 2026-05-09 01:11 | -8.18577 | 113.91649 | 23077 ft | 394 kts | 174° |
| 2026-05-09 01:11 | -8.21309 | 113.91975 | 23079 ft | 394 kts | 174° |
| 2026-05-09 01:11 | -8.24033 | 113.92306 | 23088 ft | 394 kts | 174° |
| 2026-05-09 01:12 | -8.26756 | 113.92641 | 23091 ft | 394 kts | 174° |
| 2026-05-09 01:12 | -8.29473 | 113.92976 | 23082 ft | 393 kts | 174° |
| 2026-05-09 01:12 | -8.32189 | 113.93312 | 23082 ft | 393 kts | 174° |
| 2026-05-09 01:12 | -8.34870 | 113.93643 | 23088 ft | 393 kts | 174° |
| 2026-05-09 01:13 | -8.37562 | 113.93977 | 23025 ft | 384 kts | 174° |
| 2026-05-09 01:13 | -8.40214 | 113.94305 | 22578 ft | 380 kts | 174° |
| 2026-05-09 01:13 | -8.42835 | 113.94629 | 22086 ft | 378 kts | 174° |
| 2026-05-09 01:13 | -8.45433 | 113.94950 | 21631 ft | 374 kts | 174° |
| 2026-05-09 01:14 | -8.48006 | 113.95268 | 21148 ft | 371 kts | 174° |
| 2026-05-09 01:14 | -8.50563 | 113.95584 | 20684 ft | 368 kts | 174° |
| 2026-05-09 01:14 | -8.53093 | 113.95897 | 20223 ft | 365 kts | 174° |
| 2026-05-09 01:14 | -8.55584 | 113.96205 | 19761 ft | 364 kts | 174° |
| 2026-05-09 01:15 | -8.58046 | 113.96769 | 19269 ft | 365 kts | 158° |
| 2026-05-09 01:15 | -8.60163 | 113.98175 | 18825 ft | 367 kts | 138° |
| 2026-05-09 01:15 | -8.61732 | 114.00161 | 18320 ft | 371 kts | 120° |
| 2026-05-09 01:15 | -8.62705 | 114.02585 | 17813 ft | 372 kts | 110° |
| 2026-05-09 01:16 | -8.63500 | 114.05076 | 17332 ft | 370 kts | 109° |
| 2026-05-09 01:16 | -8.64272 | 114.07519 | 16874 ft | 368 kts | 109° |
| 2026-05-09 01:16 | -8.65069 | 114.09964 | 16494 ft | 362 kts | 109° |
| 2026-05-09 01:17 | -8.66386 | 114.14807 | 15072 ft | 358 kts | 98° |
| 2026-05-09 01:17 | -8.66686 | 114.17288 | 14471 ft | 352 kts | 97° |
| 2026-05-09 01:17 | -8.66954 | 114.19704 | 13811 ft | 348 kts | 97° |
| 2026-05-09 01:17 | -8.67225 | 114.22149 | 12904 ft | 350 kts | 97° |
| 2026-05-09 01:18 | -8.67501 | 114.24583 | 12166 ft | 346 kts | 97° |
| 2026-05-09 01:18 | -8.67778 | 114.26972 | 11703 ft | 335 kts | 97° |
| 2026-05-09 01:18 | -8.68048 | 114.29264 | 11462 ft | 324 kts | 97° |
| 2026-05-09 01:18 | -8.68316 | 114.31516 | 11101 ft | 321 kts | 97° |
| 2026-05-09 01:19 | -8.68584 | 114.33752 | 10725 ft | 320 kts | 96° |
| 2026-05-09 01:19 | -8.68851 | 114.35966 | 10476 ft | 313 kts | 96° |
| 2026-05-09 01:19 | -8.69109 | 114.38108 | 10326 ft | 298 kts | 96° |
| 2026-05-09 01:19 | -8.69355 | 114.40146 | 10200 ft | 288 kts | 96° |
| 2026-05-09 01:20 | -8.69597 | 114.42153 | 10086 ft | 288 kts | 96° |
| 2026-05-09 01:20 | -8.69842 | 114.44186 | 9878 ft | 296 kts | 96° |
| 2026-05-09 01:20 | -8.70093 | 114.46273 | 9547 ft | 301 kts | 96° |
| 2026-05-09 01:20 | -8.70342 | 114.48349 | 9226 ft | 299 kts | 96° |
| 2026-05-09 01:21 | -8.70593 | 114.50428 | 8900 ft | 297 kts | 96° |
| 2026-05-09 01:21 | -8.70841 | 114.52487 | 8585 ft | 293 kts | 96° |
| 2026-05-09 01:21 | -8.71086 | 114.54519 | 8280 ft | 290 kts | 96° |
| 2026-05-09 01:21 | -8.71328 | 114.56538 | 7980 ft | 287 kts | 96° |
| 2026-05-09 01:22 | -8.71569 | 114.58534 | 7672 ft | 285 kts | 96° |
| 2026-05-09 01:22 | -8.71806 | 114.60515 | 7377 ft | 282 kts | 96° |
| 2026-05-09 01:22 | -8.72040 | 114.62459 | 7067 ft | 274 kts | 96° |
| 2026-05-09 01:22 | -8.72266 | 114.64337 | 6783 ft | 263 kts | 96° |
| 2026-05-09 01:23 | -8.72483 | 114.66146 | 6504 ft | 257 kts | 96° |
| 2026-05-09 01:23 | -8.72697 | 114.67933 | 6246 ft | 255 kts | 96° |
| 2026-05-09 01:23 | -8.72911 | 114.69711 | 5966 ft | 254 kts | 96° |
| 2026-05-09 01:23 | -8.73119 | 114.71454 | 5693 ft | 253 kts | 96° |
| 2026-05-09 01:24 | -8.73330 | 114.73212 | 5423 ft | 251 kts | 97° |
| 2026-05-09 01:24 | -8.73539 | 114.74959 | 5168 ft | 249 kts | 97° |
| 2026-05-09 01:24 | -8.73746 | 114.76689 | 4912 ft | 247 kts | 97° |
| 2026-05-09 01:24 | -8.73951 | 114.78400 | 4678 ft | 243 kts | 97° |
| 2026-05-09 01:25 | -8.74153 | 114.80094 | 4416 ft | 241 kts | 97° |
| 2026-05-09 01:25 | -8.74354 | 114.81769 | 4135 ft | 240 kts | 97° |
| 2026-05-09 01:25 | -8.74553 | 114.83436 | 3870 ft | 238 kts | 97° |
| 2026-05-09 01:25 | -8.74751 | 114.85089 | 3629 ft | 237 kts | 97° |
| 2026-05-09 01:26 | -8.74950 | 114.86747 | 3336 ft | 238 kts | 96° |
| 2026-05-09 01:26 | -8.75147 | 114.88400 | 3185 ft | 234 kts | 97° |
| 2026-05-09 01:26 | -8.75338 | 114.90000 | 3045 ft | 228 kts | 97° |
| 2026-05-09 01:26 | -8.75496 | 114.91573 | 2936 ft | 220 kts | 92° |
| 2026-05-09 01:27 | -8.75514 | 114.93078 | 2836 ft | 212 kts | 90° |
| 2026-05-09 01:27 | -8.75510 | 114.94544 | 2751 ft | 204 kts | 90° |
| 2026-05-09 01:27 | -8.75509 | 114.95943 | 2684 ft | 192 kts | 91° |
| 2026-05-09 01:27 | -8.75511 | 114.97249 | 2596 ft | 179 kts | 91° |
| 2026-05-09 01:28 | -8.75516 | 114.98449 | 2505 ft | 162 kts | 91° |
| 2026-05-09 01:28 | -8.75514 | 114.99563 | 2423 ft | 159 kts | 90° |
| 2026-05-09 01:28 | -8.75475 | 115.00639 | 2316 ft | 158 kts | 90° |
| 2026-05-09 01:28 | -8.75429 | 115.01748 | 2205 ft | 158 kts | 90° |
| 2026-05-09 01:29 | -8.75384 | 115.02857 | 2073 ft | 156 kts | 90° |
| 2026-05-09 01:29 | -8.75341 | 115.03932 | 1955 ft | 151 kts | 89° |
| 2026-05-09 01:29 | -8.75299 | 115.04994 | 1857 ft | 152 kts | 90° |
| 2026-05-09 01:29 | -8.75258 | 115.06056 | 1725 ft | 149 kts | 89° |
| 2026-05-09 01:30 | -8.75217 | 115.07058 | 1581 ft | 134 kts | 90° |
| 2026-05-09 01:30 | -8.75181 | 115.07989 | 1385 ft | 132 kts | 91° |
| 2026-05-09 01:30 | -8.75145 | 115.08916 | 1237 ft | 134 kts | 92° |
| 2026-05-09 01:30 | -8.75110 | 115.09849 | 1081 ft | 132 kts | 89° |
| 2026-05-09 01:31 | -8.75074 | 115.10768 | 925 ft | 130 kts | 91° |
| 2026-05-09 01:31 | -8.75040 | 115.11705 | 781 ft | 139 kts | 90° |
| 2026-05-09 01:31 | -8.75001 | 115.12691 | 603 ft | 144 kts | 89° |
| 2026-05-09 01:31 | -8.74958 | 115.13700 | 398 ft | 140 kts | 89° |
| 2026-05-09 01:32 | -8.74914 | 115.14662 | 163 ft | 135 kts | 90° |
| 2026-05-09 01:32 | -8.74895 | 115.15582 | 48 ft | 127 kts | 88° |
| 2026-05-09 01:32 | -8.74852 | 115.16389 | 29 ft | 97 kts | 89° |
| 2026-05-09 01:32 | -8.74835 | 115.16914 | 27 ft | 53 kts | 88° |
| 2026-05-09 01:33 | -8.74823 | 115.17203 | 26 ft | 30 kts | 87° |
| 2026-05-09 01:33 | -8.74785 | 115.17309 | 26 ft | 12 kts | 23° |
| 2026-05-09 01:33 | -8.74722 | 115.17315 | 29 ft | 0 kts | 357° |
| 2026-05-09 01:34 | -8.74721 | 115.17315 | 29 ft | 1 kts | 357° |
| 2026-05-09 01:34 | -8.74674 | 115.17305 | 31 ft | 11 kts | 325° |
| 2026-05-09 01:35 | -8.74658 | 115.17272 | 31 ft | 0 kts | 283° |
| 2026-05-09 01:35 | -8.74657 | 115.17259 | 31 ft | 8 kts | 273° |
| 2026-05-09 01:35 | -8.74661 | 115.17161 | 31 ft | 18 kts | 267° |
| 2026-05-09 01:35 | -8.74666 | 115.17034 | 31 ft | 18 kts | 268° |
| 2026-05-09 01:36 | -8.74671 | 115.16918 | 31 ft | 15 kts | 268° |
| 2026-05-09 01:36 | -8.74675 | 115.16814 | 31 ft | 14 kts | 268° |
| 2026-05-09 01:36 | -8.74679 | 115.16716 | 31 ft | 14 kts | 268° |
| 2026-05-09 01:36 | -8.74683 | 115.16621 | 31 ft | 13 kts | 267° |
| 2026-05-09 01:37 | -8.74687 | 115.16531 | 31 ft | 11 kts | 267° |
| 2026-05-09 01:37 | -8.74686 | 115.16489 | 31 ft | 3 kts | 291° |
| 2026-05-09 01:37 | -8.74666 | 115.16479 | 32 ft | 3 kts | 347° |
| 2026-05-09 01:37 | -8.74642 | 115.16476 | 32 ft | 3 kts | 355° |
| 2026-05-09 01:38 | -8.74620 | 115.16475 | 32 ft | 3 kts | 357° |
| 2026-05-09 01:38 | -8.74597 | 115.16474 | 32 ft | 3 kts | 358° |
| 2026-05-09 01:38 | -8.74576 | 115.16473 | 32 ft | 3 kts | 358° |
| 2026-05-09 01:38 | -8.74564 | 115.16472 | 32 ft | 1 kts | 358° |
| 2026-05-09 01:39 | -8.74562 | 115.16472 | 32 ft | 0 kts | 357° |
| 2026-05-09 01:39 | -8.74560 | 115.16472 | 31 ft | 0 kts | 357° |